Winston Salem, NC (27106)

6:19 PM EDT on July 28, 2016 (GMT -0400)
Sunny Dell Lakes | | Change Station
Active Advisory: Heat Advisory Active Notice: Local Storm Report

Elev 774 ft 36.14 °N, 80.33 °W | Updated 0 second ago

Partly Cloudy
Partly Cloudy
93.0 °F
Feels Like 101 °F
N
0.0
Wind Variable Wind from SW
Gusts 0.0 mph

Today
High -- | Low -- °F
--% Chance of Precip.
Yesterday
High -- | Low -- °F
Precip. -- in
Pressure 29.81 in
Visibility 10.0 miles
Clouds Few 6500 ft
Heat Index 101 °F
Dew Point 72 °F
Humidity 51%
Rainfall 0.01 in
Snow Depth Not available.
6:25 AM 8:29 PM
Waning Crescent, 28% visible
METAR KINT 282154Z 23008KT 190V270 10SM FEW065 34/19 A2985 RMK AO2 SLP095 T03390189
Pressure 29.81 in
Visibility 10.0 miles
Clouds Few 6500 ft
Heat Index 101 °F
Dew Point 72 °F
Humidity 51%
Rainfall 0.01 in
Snow Depth Not available.
6:25 AM 8:29 PM
Waning Crescent, 28% visible
METAR KINT 282154Z 23008KT 190V270 10SM FEW065 34/19 A2985 RMK AO2 SLP095 T03390189

10-Day Weather Forecast

Almanac

Astronomy

Jul. 28, 2016 Rise Set
Actual Time
Civil Twilight
Nautical Twilight
Astronomical Twilight
Moon
Length of Visible Light
Length of Day
Tomorrow will be .
, % of the Moon is Illuminated

Today's Extremes

State Highs State Lows

Community

WunderPhotos

Upload Photos

1,928,219 photos uploaded!

WunderBlog® & News

Nearby

Air Quality

  Air Quality AQ Index Pollutant
Not available.

Snow Depth

Station Depth Elevation

Earthquake Activity

City Distance Mag. Time & Date
Minimum magnitude displayed is 2.5.

Coastal Water Temperatures

Place Temperature

Stations

Nearby Weather Stations

Station Location Temp. Windchill Dew Point Humidity Wind Precip. Elev Updated Type
                   

Watches & Warnings

Heat Advisory
Issued: 10:55 AM EDT Jul. 28, 2016 – National Weather Service

... Heat advisory remains in effect until 8 PM EDT this evening...

* temperatures... highs will reach 96 to 100.

* Heat indices... 105 to 109 degrees.

* Impacts... the accumulative effects of the heat and humidity
will lead to an increased risk of heat related illnesses...
especially among vulnerable individuals such as the sick...
the elderly... those exerting themselves outdoors... and those
without air conditioning.

Precautionary/preparedness actions...

A heat advisory means that hot temperatures and high humidity
will create a situation in which heat illnesses are likely unless
precautions are taken. Limit time outdoors... especially this
afternoon. Wear loose fitting and light colored clothing. Take
frequent breaks in the shade... in air conditioning... or near a
fan. Drink plenty of water.